createdAt,value
2022-10-31T00:00:49.244Z,100087.38
2022-10-31T00:03:17.374Z,100083.06
2022-10-31T00:05:47.721Z,100091.72
2022-10-31T00:08:14.632Z,100076.13
2022-10-31T00:10:42.692Z,100082.19
2022-10-31T00:13:10.543Z,100078.72
2022-10-31T00:15:39.171Z,100081.31
2022-10-31T00:18:07.166Z,100072.69
2022-10-31T00:20:34.096Z,100088.25
2022-10-31T00:23:02.138Z,100083.06
2022-10-31T00:25:30.241Z,100084.81
2022-10-31T00:27:57.061Z,100086.56
2022-10-31T00:30:24.018Z,100083.91
2022-10-31T00:32:50.596Z,100088.19
2022-10-31T00:35:17.232Z,100075.28
2022-10-31T00:37:43.801Z,100084.72
2022-10-31T00:40:11.295Z,100078.66
2022-10-31T00:42:37.873Z,100087.31
2022-10-31T00:45:04.564Z,100089.03
2022-10-31T00:47:31.089Z,100082.97
2022-10-31T00:49:57.666Z,100089.84
2022-10-31T00:52:24.257Z,100084.66
2022-10-31T00:54:50.793Z,100085.53
2022-10-31T00:57:17.461Z,100083.78
2022-10-31T00:59:44.037Z,100082.94
2022-10-31T01:02:10.734Z,100075.97
2022-10-31T01:04:37.384Z,100083.78
2022-10-31T01:07:03.997Z,100082.91
2022-10-31T01:09:30.550Z,100079.44
2022-10-31T01:11:57.083Z,100084.63
2022-10-31T01:14:23.688Z,100093.25
2022-10-31T01:16:50.261Z,100092.44
2022-10-31T01:19:18.541Z,100091.53
2022-10-31T01:21:46.888Z,100084.56
2022-10-31T01:24:15.261Z,100083.72
2022-10-31T01:26:43.686Z,100081.97
2022-10-31T01:29:11.515Z,100086.31
2022-10-31T01:31:41.725Z,100089.75
2022-10-31T01:34:13.498Z,100081.13
2022-10-31T01:36:42.331Z,100079.34
2022-10-31T01:39:14.141Z,100089.75
2022-10-31T01:41:44.311Z,100088.84
2022-10-31T01:49:44.908Z,100087.16
2022-10-31T01:52:17.732Z,100081.03
2022-10-31T01:54:49.695Z,100068.06
2022-10-31T01:57:18.953Z,100076.69
2022-10-31T01:59:50.341Z,100078.41
2022-10-31T02:02:19.653Z,100061.94
2022-10-31T02:04:48.604Z,100079.28
2022-10-31T02:07:22.038Z,100061.09
2022-10-31T02:09:50.869Z,100055.88
2022-10-31T02:12:18.755Z,100058.44
2022-10-31T02:14:45.305Z,100059.28
2022-10-31T02:17:11.877Z,100060.22
2022-10-31T02:36:18.255Z,100072.19
2022-10-31T02:47:02.467Z,100048.09
2022-10-31T02:49:37.773Z,100044.63
2022-10-31T02:52:15.100Z,100051.56
2022-10-31T02:54:41.992Z,100042.97
2022-10-31T02:57:09.189Z,100041.25
2022-10-31T02:59:41.054Z,100036.94
2022-10-31T03:08:07.797Z,100046.56
2022-10-31T03:19:11.605Z,100053.56
2022-10-31T03:21:45.379Z,100060.47
2022-10-31T03:24:13.725Z,100055.22
2022-10-31T03:26:47.825Z,100048.34
2022-10-31T03:29:19.784Z,100051.06
2022-10-31T03:31:53.894Z,100050.94
2022-10-31T03:34:21.198Z,100050.13
2022-10-31T03:36:52.718Z,100050.13
2022-10-31T03:39:21.767Z,100048.44
2022-10-31T03:41:55.867Z,100052.75
2022-10-31T03:44:24.949Z,100051.91
2022-10-31T03:46:51.800Z,100049.34
2022-10-31T03:49:18.733Z,100043.28
2022-10-31T03:59:56.890Z,100047.66
2022-10-31T04:02:28.704Z,100046.84
2022-10-31T04:04:55.699Z,100044.25
2022-10-31T04:07:24.327Z,100047.72
2022-10-31T04:09:53.200Z,100053.75
2022-10-31T04:12:21.708Z,100052.06
2022-10-31T04:14:51.547Z,100049.50
2022-10-31T04:17:24.317Z,100042.59
2022-10-31T04:19:50.850Z,100052.09
2022-10-31T04:22:17.405Z,100053.84
2022-10-31T04:24:44.004Z,100065.06
2022-10-31T04:27:10.821Z,100054.72
2022-10-31T04:29:37.367Z,100053.88
2022-10-31T04:32:03.954Z,100035.72
2022-10-31T04:34:30.511Z,100041.78
2022-10-31T04:36:57.053Z,100042.69
2022-10-31T04:39:26.611Z,100041.81
2022-10-31T04:41:53.627Z,100041.88
2022-10-31T04:44:20.327Z,100045.31
2022-10-31T04:46:47.159Z,100047.94
2022-10-31T04:49:13.908Z,100044.50
2022-10-31T04:51:40.417Z,100028.94
2022-10-31T04:54:07.132Z,100026.34
2022-10-31T04:56:33.742Z,100033.31
2022-10-31T04:59:00.317Z,100025.59
2022-10-31T05:01:27.410Z,100019.50
2022-10-31T05:03:54.065Z,100013.47
2022-10-31T05:06:20.613Z,100016.06
2022-10-31T05:08:47.256Z,100012.59
2022-10-31T05:11:14.117Z,100010.88
2022-10-31T05:13:40.647Z,100009.13
2022-10-31T05:16:07.482Z,100009.19
2022-10-31T05:18:34.027Z,100013.50
2022-10-31T05:21:00.623Z,100014.38
2022-10-31T05:23:27.158Z,100012.63
2022-10-31T05:25:53.687Z,100005.72
2022-10-31T05:28:20.314Z,100009.19
2022-10-31T05:30:46.825Z,100012.69
2022-10-31T05:33:13.402Z,100009.19
2022-10-31T05:35:40.004Z,100013.50
2022-10-31T05:38:06.503Z,100003.16
2022-10-31T05:40:33.099Z,100005.78
2022-10-31T05:43:00.169Z,100010.97
2022-10-31T05:45:27.046Z,100002.31
2022-10-31T05:47:57.572Z,99999.75
2022-10-31T05:50:26.614Z,99989.38
2022-10-31T05:52:58.428Z,99989.38
2022-10-31T05:55:26.579Z,99991.13
2022-10-31T05:57:54.396Z,99981.66
2022-10-31T06:00:21.801Z,99981.66
2022-10-31T06:02:48.887Z,99979.88
2022-10-31T06:05:15.727Z,99988.56
2022-10-31T06:07:42.267Z,99985.06
2022-10-31T06:10:09.510Z,99990.25
2022-10-31T06:12:38.763Z,99976.41
2022-10-31T06:15:07.787Z,99983.34
2022-10-31T06:17:35.588Z,99974.69
2022-10-31T06:20:02.429Z,99975.56
2022-10-31T06:22:29.176Z,99972.09
2022-10-31T06:24:55.778Z,99968.63
2022-10-31T06:27:22.548Z,99969.50
2022-10-31T06:29:49.251Z,99975.53
2022-10-31T06:32:16.232Z,99968.59
2022-10-31T06:34:43.775Z,99969.50
2022-10-31T06:37:14.041Z,99967.72
2022-10-31T06:39:40.634Z,99977.25
2022-10-31T06:42:07.504Z,99971.22
2022-10-31T06:44:34.086Z,99976.38
2022-10-31T06:47:00.775Z,99978.97
2022-10-31T06:49:27.357Z,99983.28
2022-10-31T06:51:53.969Z,99980.75
2022-10-31T06:54:20.574Z,99971.22
2022-10-31T06:56:48.329Z,99978.13
2022-10-31T06:59:15.553Z,99970.41
2022-10-31T07:01:42.289Z,99968.69
2022-10-31T07:04:11.524Z,99971.22
2022-10-31T07:06:38.302Z,99974.69
2022-10-31T07:09:05.410Z,99962.63
2022-10-31T07:11:31.944Z,99967.81
2022-10-31T07:13:58.512Z,99973.81
2022-10-31T07:16:25.280Z,99972.91
2022-10-31T07:18:51.794Z,99963.41
2022-10-31T07:21:18.552Z,99964.28
2022-10-31T07:23:45.181Z,99962.53
2022-10-31T07:26:11.734Z,99954.72
2022-10-31T07:28:38.268Z,99958.13
2022-10-31T07:31:04.857Z,99962.44
2022-10-31T07:33:31.493Z,99960.69
2022-10-31T07:35:58.022Z,99956.28
2022-10-31T07:38:24.704Z,99963.19
2022-10-31T07:40:53.727Z,99964.00
2022-10-31T07:43:20.813Z,99971.75
2022-10-31T07:45:53.037Z,99975.16
2022-10-31T07:48:20.344Z,99974.28
2022-10-31T07:50:47.427Z,99976.00
2022-10-31T07:53:15.576Z,99978.50
2022-10-31T07:55:43.102Z,99980.81
2022-10-31T07:58:13.429Z,99976.94
2022-10-31T08:00:41.983Z,99980.81
2022-10-31T08:03:12.168Z,99979.25
2022-10-31T08:05:39.444Z,99971.81
2022-10-31T08:08:06.571Z,99979.97
2022-10-31T08:10:33.827Z,99974.47
2022-10-31T08:13:06.640Z,99970.31
2022-10-31T08:15:35.241Z,99976.88
2022-10-31T08:18:03.404Z,99975.50
2022-10-31T08:20:30.177Z,99974.00
2022-10-31T08:25:38.612Z,99983.50
2022-10-31T08:28:06.414Z,99985.28
2022-10-31T08:30:35.992Z,99982.84
2022-10-31T08:33:05.840Z,99981.00
2022-10-31T08:35:33.933Z,99975.94
2022-10-31T08:38:01.400Z,99972.56
2022-10-31T08:40:30.396Z,99972.56
2022-10-31T08:43:02.440Z,99981.25
2022-10-31T08:45:31.271Z,99975.13
2022-10-31T08:47:59.553Z,99968.84
2022-10-31T08:50:26.549Z,99967.78
2022-10-31T08:53:04.694Z,99955.91
2022-10-31T08:55:31.907Z,99967.59
2022-10-31T08:58:00.186Z,99966.75
2022-10-31T09:00:27.197Z,99972.09
2022-10-31T09:02:58.849Z,99966.19
2022-10-31T09:05:25.912Z,99974.91
2022-10-31T09:07:55.975Z,99971.53
2022-10-31T09:10:22.833Z,99976.78
2022-10-31T09:12:56.264Z,99983.78
2022-10-31T09:15:22.916Z,99977.72
2022-10-31T09:17:49.858Z,99975.97
2022-10-31T09:20:16.450Z,99962.81
2022-10-31T09:22:43.274Z,99965.44
2022-10-31T09:25:10.277Z,99961.97
2022-10-31T09:27:37.208Z,99961.06
2022-10-31T09:30:04.931Z,99948.91
2022-10-31T09:32:31.499Z,99955.91
2022-10-31T09:34:58.056Z,99948.06
2022-10-31T09:37:24.736Z,99947.19
2022-10-31T09:39:51.308Z,99951.59
2022-10-31T09:45:09.432Z,99954.19
2022-10-31T09:48:15.797Z,99944.66
2022-10-31T09:50:51.554Z,99937.63
2022-10-31T09:55:56.092Z,99934.84
2022-10-31T09:58:29.623Z,99933.09
2022-10-31T10:01:01.419Z,99930.41
2022-10-31T10:06:14.185Z,99929.41
2022-10-31T10:08:40.950Z,99931.06
2022-10-31T10:22:17.308Z,99932.94
2022-10-31T10:28:04.272Z,99934.69
2022-10-31T10:33:15.550Z,99928.56
2022-10-31T10:38:36.801Z,99921.63
2022-10-31T10:41:11.033Z,99921.63
2022-10-31T10:43:38.622Z,99909.13
2022-10-31T11:00:20.114Z,99901.44
2022-10-31T11:02:48.965Z,99894.34
2022-10-31T11:05:35.562Z,99900.34
2022-10-31T11:08:02.229Z,99884.53
2022-10-31T11:10:29.232Z,99883.50
2022-10-31T11:18:46.398Z,99856.25
2022-10-31T11:21:26.622Z,99857.66
2022-10-31T11:26:49.578Z,99847.25
2022-10-31T11:29:22.794Z,99842.75
2022-10-31T11:31:53.091Z,99837.88
2022-10-31T11:37:13.019Z,99827.84
2022-10-31T11:39:46.220Z,99819.97
2022-10-31T11:42:13.159Z,99833.78
2022-10-31T11:44:44.725Z,99819.63
2022-10-31T11:47:16.347Z,99817.75
2022-10-31T11:49:46.114Z,99811.38
2022-10-31T11:52:16.211Z,99807.22
2022-10-31T11:54:48.494Z,99799.91
2022-10-31T11:57:25.871Z,99795.69
2022-10-31T11:59:57.126Z,99788.06
2022-10-31T12:02:23.950Z,99782.09
2022-10-31T12:07:32.325Z,99787.22
2022-10-31T12:09:58.913Z,99775.69
2022-10-31T12:18:25.920Z,99754.16
2022-10-31T12:21:17.037Z,99756.63
2022-10-31T12:26:50.476Z,99744.25
2022-10-31T12:40:53.243Z,99724.06
2022-10-31T12:59:54.580Z,99678.28
2022-10-31T13:05:18.794Z,99670.03
2022-10-31T13:07:54.717Z,99669.13
2022-10-31T13:10:44.780Z,99659.59
2022-10-31T13:13:19.570Z,99655.59
2022-10-31T13:15:52.517Z,99647.75
2022-10-31T13:18:47.726Z,99638.53
2022-10-31T13:21:22.250Z,99633.19
2022-10-31T13:23:53.115Z,99629.25
2022-10-31T13:29:15.614Z,99617.00
2022-10-31T13:31:43.157Z,99608.25
2022-10-31T13:34:21.351Z,99608.00
2022-10-31T13:36:59.149Z,99599.41
2022-10-31T13:45:21.567Z,99586.53
2022-10-31T13:48:01.813Z,99577.91
2022-10-31T13:50:32.120Z,99580.63
2022-10-31T13:53:20.827Z,99578.25
2022-10-31T13:55:51.750Z,99574.47
2022-10-31T13:58:34.305Z,99576.34
2022-10-31T14:01:20.859Z,99572.84
2022-10-31T14:04:13.528Z,99561.59
2022-10-31T14:07:07.105Z,99551.97
2022-10-31T14:20:43.766Z,99523.94
2022-10-31T14:25:49.118Z,99514.50
2022-10-31T14:28:22.604Z,99508.31
2022-10-31T14:30:54.859Z,99500.53
2022-10-31T14:33:25.176Z,99504.34
2022-10-31T14:52:12.592Z,99484.47
2022-10-31T14:54:43.299Z,99489.19
2022-10-31T14:57:32.095Z,99473.03
2022-10-31T15:00:06.136Z,99466.09
2022-10-31T15:02:52.945Z,99468.63
2022-10-31T15:05:19.977Z,99459.75
2022-10-31T15:07:56.702Z,99460.78
2022-10-31T15:13:20.825Z,99446.00
2022-10-31T15:15:52.006Z,99440.66
2022-10-31T15:18:22.725Z,99436.31
2022-10-31T15:20:50.131Z,99438.22
2022-10-31T15:23:23.009Z,99415.63
2022-10-31T15:25:49.601Z,99420.84
2022-10-31T15:28:24.593Z,99411.50
2022-10-31T15:30:55.803Z,99417.53
2022-10-31T15:33:32.422Z,99401.78
2022-10-31T15:36:04.476Z,99408.16
2022-10-31T15:38:31.184Z,99406.38
2022-10-31T15:41:20.388Z,99402.19
2022-10-31T15:43:48.318Z,99391.75
2022-10-31T15:46:15.064Z,99386.31
2022-10-31T15:48:47.027Z,99376.91
2022-10-31T15:51:13.777Z,99370.94
2022-10-31T15:56:24.112Z,99369.38
2022-10-31T15:58:52.865Z,99343.31
2022-10-31T16:01:24.984Z,99345.91
2022-10-31T16:07:01.565Z,99339.19
2022-10-31T16:09:28.742Z,99330.56
2022-10-31T16:11:58.342Z,99325.34
2022-10-31T16:14:28.574Z,99308.81
2022-10-31T16:16:58.020Z,99294.66
2022-10-31T16:19:34.190Z,99304.34
2022-10-31T16:22:23.509Z,99300.50
2022-10-31T16:25:07.240Z,99300.63
2022-10-31T16:27:35.739Z,99292.84
2022-10-31T16:30:05.577Z,99293.09
2022-10-31T16:32:36.222Z,99286.53
2022-10-31T16:35:19.772Z,99269.94
2022-10-31T16:37:46.569Z,99266.34
2022-10-31T16:40:15.027Z,99262.31
2022-10-31T16:42:43.015Z,99246.72
2022-10-31T16:45:17.211Z,99238.81
2022-10-31T16:47:43.796Z,99233.69
2022-10-31T16:50:18.272Z,99229.31
2022-10-31T16:53:08.339Z,99239.00
2022-10-31T16:55:35.875Z,99240.69
2022-10-31T16:58:03.236Z,99230.34
2022-10-31T17:00:30.064Z,99222.63
2022-10-31T17:02:57.743Z,99216.63
2022-10-31T17:05:30.401Z,99208.03
2022-10-31T17:07:58.206Z,99199.25
2022-10-31T17:10:26.305Z,99180.25
2022-10-31T17:12:53.657Z,99174.94
2022-10-31T17:15:24.386Z,99164.63
2022-10-31T17:17:51.722Z,99164.72
2022-10-31T17:22:56.328Z,99145.59
2022-10-31T17:25:25.982Z,99151.81
2022-10-31T17:27:52.763Z,99146.81
2022-10-31T17:30:21.043Z,99142.50
2022-10-31T17:32:49.006Z,99137.28
2022-10-31T17:35:16.685Z,99137.38
2022-10-31T17:37:44.467Z,99130.56
2022-10-31T17:40:13.857Z,99118.56
2022-10-31T17:42:40.633Z,99109.66
2022-10-31T17:45:09.072Z,99102.78
2022-10-31T17:47:36.284Z,99098.47
2022-10-31T17:50:03.575Z,99088.91
2022-10-31T17:52:30.082Z,99092.19
2022-10-31T17:54:56.596Z,99074.78
2022-10-31T17:57:23.122Z,99068.72
2022-10-31T17:59:50.097Z,99058.38
2022-10-31T18:02:16.732Z,99067.75
2022-10-31T18:04:43.428Z,99057.38
2022-10-31T18:07:09.961Z,99056.78
2022-10-31T18:09:36.557Z,99054.91
2022-10-31T18:12:03.274Z,99060.44
2022-10-31T18:14:29.985Z,99052.53
2022-10-31T18:16:56.655Z,99044.97
2022-10-31T18:19:23.371Z,99037.25
2022-10-31T18:21:49.920Z,99028.84
2022-10-31T18:24:16.468Z,99027.13
2022-10-31T18:26:43.067Z,99016.81
2022-10-31T18:29:11.583Z,99006.38
2022-10-31T18:31:38.136Z,98990.91
2022-10-31T18:34:04.663Z,98983.75
2022-10-31T18:36:31.192Z,98992.41
2022-10-31T18:38:58.007Z,98987.25
2022-10-31T18:41:24.614Z,98979.69
2022-10-31T18:43:52.124Z,98996.53
2022-10-31T18:46:18.764Z,98972.44
2022-10-31T18:48:46.452Z,98974.97
2022-10-31T18:51:15.281Z,98969.97
2022-10-31T18:53:41.873Z,98959.44
2022-10-31T18:56:10.384Z,98964.75
2022-10-31T18:58:37.221Z,98965.75
2022-10-31T19:01:09.665Z,98947.69
2022-10-31T19:03:36.790Z,98941.78
2022-10-31T19:06:04.181Z,98932.31
2022-10-31T19:08:31.666Z,98923.78
2022-10-31T19:11:14.842Z,98912.81
2022-10-31T19:13:42.958Z,98911.97
2022-10-31T19:16:12.311Z,98896.22
2022-10-31T19:18:40.053Z,98897.19
2022-10-31T19:21:16.346Z,98890.47
2022-10-31T19:23:44.524Z,98874.75
2022-10-31T19:26:11.190Z,98876.47
2022-10-31T19:28:40.090Z,98879.97
2022-10-31T19:31:07.695Z,98852.31
2022-10-31T19:33:36.140Z,98851.63
2022-10-31T19:36:10.089Z,98845.63
2022-10-31T19:38:38.812Z,98855.13
2022-10-31T19:41:07.950Z,98843.72
2022-10-31T19:43:34.602Z,98830.00
2022-10-31T19:46:02.787Z,98825.53
2022-10-31T19:48:30.013Z,98813.59
2022-10-31T19:51:18.216Z,98807.44
2022-10-31T19:53:45.474Z,98802.22
2022-10-31T19:56:15.455Z,98794.38
2022-10-31T19:58:42.173Z,98790.84
2022-10-31T20:01:15.035Z,98781.34
2022-10-31T20:03:42.988Z,98775.16
2022-10-31T20:06:24.340Z,98771.63
2022-10-31T20:08:52.471Z,98756.84
2022-10-31T20:11:19.527Z,98752.38
2022-10-31T20:13:46.174Z,98743.63
2022-10-31T20:16:14.564Z,98737.31
2022-10-31T20:18:42.298Z,98731.22
2022-10-31T20:21:11.789Z,98738.00
2022-10-31T20:23:39.416Z,98730.09
2022-10-31T20:26:08.418Z,98721.34
2022-10-31T20:28:38.844Z,98718.81
2022-10-31T20:31:12.431Z,98703.91
2022-10-31T20:33:39.043Z,98697.75
2022-10-31T20:36:07.613Z,98690.75
2022-10-31T20:38:35.133Z,98690.00
2022-10-31T20:41:03.488Z,98675.84
2022-10-31T20:43:31.872Z,98661.94
2022-10-31T20:46:01.678Z,98649.69
2022-10-31T20:48:29.019Z,98649.63
2022-10-31T20:50:59.870Z,98642.78
2022-10-31T20:53:26.888Z,98646.16
2022-10-31T20:56:07.121Z,98636.63
2022-10-31T20:58:35.663Z,98632.81
2022-10-31T21:01:02.435Z,98624.28
2022-10-31T21:03:29.504Z,98611.00
2022-10-31T21:05:58.404Z,98616.84
2022-10-31T21:08:26.918Z,98599.50
2022-10-31T21:10:54.227Z,98593.31
2022-10-31T21:13:21.205Z,98595.88
2022-10-31T21:15:48.549Z,98593.91
2022-10-31T21:18:15.112Z,98584.38
2022-10-31T21:20:43.967Z,98588.59
2022-10-31T21:23:11.783Z,98578.06
2022-10-31T21:25:40.611Z,98578.06
2022-10-31T21:28:08.555Z,98570.13
2022-10-31T21:30:40.276Z,98574.53
2022-10-31T21:33:06.848Z,98557.09
2022-10-31T21:35:33.403Z,98560.38
2022-10-31T21:38:00.232Z,98552.56
2022-10-31T21:40:27.427Z,98558.66
2022-10-31T21:42:55.736Z,98556.16
2022-10-31T21:45:23.047Z,98560.38
2022-10-31T21:47:50.394Z,98544.75
2022-10-31T21:50:17.669Z,98543.19
2022-10-31T21:52:44.248Z,98523.81
2022-10-31T21:55:10.823Z,98526.41
2022-10-31T21:57:37.658Z,98519.31
2022-10-31T22:00:10.318Z,98514.22
2022-10-31T22:02:37.208Z,98498.56
2022-10-31T22:05:04.417Z,98483.97
2022-10-31T22:07:32.227Z,98487.38
2022-10-31T22:09:58.773Z,98480.44
2022-10-31T22:12:25.360Z,98473.44
2022-10-31T22:14:51.886Z,98458.81
2022-10-31T22:17:18.700Z,98461.91
2022-10-31T22:19:45.270Z,98452.63
2022-10-31T22:22:13.168Z,98454.44
2022-10-31T22:24:39.773Z,98450.66
2022-10-31T22:27:06.287Z,98443.88
2022-10-31T22:29:35.061Z,98431.78
2022-10-31T22:32:03.046Z,98433.72
2022-10-31T22:34:29.613Z,98418.84
2022-10-31T22:36:56.698Z,98413.69
2022-10-31T22:39:23.294Z,98403.91
2022-10-31T22:41:49.832Z,98404.06
2022-10-31T22:44:16.386Z,98392.88
2022-10-31T22:46:42.985Z,98397.09
2022-10-31T22:49:14.733Z,98382.97
2022-10-31T22:51:43.111Z,98383.03
2022-10-31T22:54:14.579Z,98363.06
2022-10-31T22:56:41.657Z,98355.38
2022-10-31T22:59:08.381Z,98356.38
2022-10-31T23:01:35.139Z,98345.03
2022-10-31T23:04:02.905Z,98337.94
2022-10-31T23:06:31.457Z,98327.66
2022-10-31T23:09:00.480Z,98317.13
2022-10-31T23:14:09.720Z,98300.53
2022-10-31T23:16:40.887Z,98291.38
2022-10-31T23:19:08.938Z,98281.66
2022-10-31T23:21:54.970Z,98275.63
2022-10-31T23:27:08.070Z,98268.72
2022-10-31T23:32:22.461Z,98258.31
2022-10-31T23:34:51.547Z,98260.81
2022-10-31T23:37:19.710Z,98245.91
2022-10-31T23:39:47.366Z,98248.03
2022-10-31T23:42:14.379Z,98245.63
2022-10-31T23:44:41.306Z,98249.72
2022-10-31T23:47:08.227Z,98242.84
2022-10-31T23:49:34.957Z,98238.75
2022-10-31T23:52:03.734Z,98237.06
2022-10-31T23:54:31.505Z,98235.28
2022-10-31T23:56:58.276Z,98233.63
2022-10-31T23:59:25.802Z,98234.81
